Time,TemperatureF,DewpointF,PressureIn,WindDirection,WindDirectionDegrees,WindSpeedMPH,WindSpeedGustMPH,Humidity,HourlyPrecipIn,Conditions,Clouds,dailyrainin,SoftwareType,DateUTC
2013-06-08 00:09:00,75.6,69.0,30.04,East,92,0.0,11.0,79,0.00,,,0.00,weatherlink.com 1.10,2013-06-08 10:09:00,
2013-06-08 00:27:00,75.6,69.0,30.03,ESE,106,0.0,8.0,80,0.00,,,0.00,weatherlink.com 1.10,2013-06-08 10:27:00,
2013-06-08 00:45:00,75.8,68.0,30.03,North,360,3.0,10.0,78,0.00,,,0.00,weatherlink.com 1.10,2013-06-08 10:45:00,
2013-06-08 01:04:00,75.7,68.0,30.02,ESE,121,5.0,6.0,78,0.00,,,0.00,weatherlink.com 1.10,2013-06-08 11:04:00,
2013-06-08 01:22:00,75.7,68.0,30.02,NNE,13,3.0,8.0,77,0.00,,,0.00,weatherlink.com 1.10,2013-06-08 11:22:00,
2013-06-08 01:40:00,75.4,68.0,30.01,East,97,0.0,9.0,78,0.00,,,0.00,weatherlink.com 1.10,2013-06-08 11:40:00,
2013-06-08 01:58:00,75.5,68.0,30.01,East,101,0.0,4.0,77,0.00,,,0.00,weatherlink.com 1.10,2013-06-08 11:58:00,
2013-06-08 02:16:00,75.5,68.0,30.01,East,90,0.0,5.0,77,0.00,,,0.00,weatherlink.com 1.10,2013-06-08 12:16:00,
2013-06-08 02:34:00,75.5,68.0,30.00,East,89,0.0,8.0,77,0.00,,,0.00,weatherlink.com 1.10,2013-06-08 12:34:00,
2013-06-08 02:52:00,75.5,67.0,30.00,NE,38,1.0,11.0,74,0.00,,,0.00,weatherlink.com 1.10,2013-06-08 12:52:00,
2013-06-08 03:10:00,75.5,67.0,29.99,NNE,26,0.0,6.0,76,0.00,,,0.00,weatherlink.com 1.10,2013-06-08 13:10:00,
2013-06-08 03:29:00,75.5,68.0,29.99,ENE,67,2.0,9.0,77,0.00,,,0.00,weatherlink.com 1.10,2013-06-08 13:29:00,
2013-06-08 03:47:00,75.4,68.0,29.98,ESE,105,1.0,8.0,77,0.00,,,0.00,weatherlink.com 1.10,2013-06-08 13:47:00,
2013-06-08 04:05:00,75.3,67.0,29.99,SE,138,0.0,7.0,75,0.00,,,0.00,weatherlink.com 1.10,2013-06-08 14:05:00,
2013-06-08 04:24:00,75.4,68.0,29.99,East,96,0.0,7.0,77,0.00,,,0.00,weatherlink.com 1.10,2013-06-08 14:24:00,
2013-06-08 04:42:00,75.3,68.0,29.99,South,176,0.0,6.0,77,0.00,,,0.00,weatherlink.com 1.10,2013-06-08 14:42:00,
2013-06-08 05:00:00,75.3,68.0,29.99,East,88,2.0,7.0,78,0.00,,,0.00,weatherlink.com 1.10,2013-06-08 15:00:00,
2013-06-08 05:19:00,75.2,69.0,29.99,NE,36,3.0,10.0,80,0.00,,,0.00,weatherlink.com 1.10,2013-06-08 15:19:00,
2013-06-08 05:37:00,75.3,68.0,30.00,East,96,3.0,8.0,78,0.00,,,0.00,weatherlink.com 1.10,2013-06-08 15:37:00,
2013-06-08 05:54:00,75.5,68.0,30.00,NE,55,0.0,8.0,78,0.00,,,0.00,weatherlink.com 1.10,2013-06-08 15:54:00,
2013-06-08 06:13:00,75.6,67.0,30.01,East,95,6.0,8.0,75,0.00,,,0.00,weatherlink.com 1.10,2013-06-08 16:13:00,
2013-06-08 06:32:00,76.2,68.0,30.02,NE,47,0.0,4.0,77,0.00,,,0.00,weatherlink.com 1.10,2013-06-08 16:32:00,
2013-06-08 06:50:00,76.5,68.0,30.02,SE,146,0.0,4.0,76,0.00,,,0.00,weatherlink.com 1.10,2013-06-08 16:50:00,
2013-06-08 07:08:00,76.7,68.0,30.03,NNE,30,0.0,7.0,75,0.00,,,0.00,weatherlink.com 1.10,2013-06-08 17:08:00,
2013-06-08 07:26:00,77.3,68.0,30.03,NE,53,0.0,8.0,73,0.00,,,0.00,weatherlink.com 1.10,2013-06-08 17:26:00,
2013-06-08 07:44:00,78.2,69.0,30.03,ESE,107,4.0,11.0,73,0.00,,,0.00,weatherlink.com 1.10,2013-06-08 17:44:00,
2013-06-08 08:03:00,78.7,69.0,30.03,East,86,0.0,7.0,73,0.00,,,0.00,weatherlink.com 1.10,2013-06-08 18:03:00,
2013-06-08 08:22:00,80.0,69.0,30.02,SE,138,0.0,9.0,70,0.00,,,0.00,weatherlink.com 1.10,2013-06-08 18:22:00,
2013-06-08 08:40:00,79.1,69.0,30.02,NE,44,2.0,12.0,72,0.00,,,0.00,weatherlink.com 1.10,2013-06-08 18:40:00,
2013-06-08 08:58:00,80.3,69.0,30.03,ENE,78,0.0,11.0,69,0.00,,,0.00,weatherlink.com 1.10,2013-06-08 18:58:00,
2013-06-08 09:16:00,80.9,69.0,30.03,ESE,115,2.0,9.0,68,0.00,,,0.00,weatherlink.com 1.10,2013-06-08 19:16:00,
2013-06-08 09:36:00,80.4,70.0,30.03,ENE,67,2.0,14.0,70,0.00,,,0.00,weatherlink.com 1.10,2013-06-08 19:36:00,
2013-06-08 09:54:00,81.2,70.0,30.03,SE,136,0.0,13.0,68,0.00,,,0.00,weatherlink.com 1.10,2013-06-08 19:54:00,
2013-06-08 10:12:00,80.4,69.0,30.04,NE,34,4.0,11.0,69,0.00,,,0.00,weatherlink.com 1.10,2013-06-08 20:12:00,
2013-06-08 10:33:00,80.6,70.0,30.04,ENE,75,1.0,8.0,71,0.00,,,0.00,weatherlink.com 1.10,2013-06-08 20:33:00,
2013-06-08 10:51:00,82.0,70.0,30.04,NE,50,3.0,7.0,68,0.00,,,0.00,weatherlink.com 1.10,2013-06-08 20:51:00,
2013-06-08 11:09:00,81.9,70.0,30.04,NE,42,1.0,8.0,68,0.00,,,0.00,weatherlink.com 1.10,2013-06-08 21:09:00,
2013-06-08 11:27:00,82.9,71.0,30.04,ENE,65,0.0,9.0,67,0.00,,,0.00,weatherlink.com 1.10,2013-06-08 21:27:00,
2013-06-08 11:46:00,81.5,70.0,30.03,ESE,123,0.0,10.0,69,0.00,,,0.00,weatherlink.com 1.10,2013-06-08 21:46:00,
2013-06-08 12:04:00,82.1,70.0,30.02,NE,49,1.0,8.0,68,0.00,,,0.00,weatherlink.com 1.10,2013-06-08 22:04:00,
2013-06-08 12:23:00,82.2,71.0,30.02,ESE,123,7.0,9.0,69,0.00,,,0.00,weatherlink.com 1.10,2013-06-08 22:23:00,
2013-06-08 12:41:00,82.1,70.0,30.02,NE,54,1.0,11.0,68,0.00,,,0.00,weatherlink.com 1.10,2013-06-08 22:41:00,
2013-06-08 12:59:00,82.5,70.0,30.02,SE,137,2.0,9.0,67,0.00,,,0.00,weatherlink.com 1.10,2013-06-08 22:59:00,
2013-06-08 13:18:00,81.7,71.0,30.01,NE,54,3.0,10.0,69,0.00,,,0.00,weatherlink.com 1.10,2013-06-08 23:18:00,
2013-06-08 13:36:00,82.1,71.0,30.01,North,360,0.0,10.0,69,0.00,,,0.00,weatherlink.com 1.10,2013-06-08 23:36:00,
2013-06-08 13:54:00,81.4,71.0,30.01,ENE,68,0.0,7.0,71,0.00,,,0.00,weatherlink.com 1.10,2013-06-08 23:54:00,
2013-06-08 14:12:00,80.9,71.0,30.01,East,90,3.0,9.0,72,0.00,,,0.00,weatherlink.com 1.10,2013-06-09 00:12:00,
2013-06-08 14:31:00,83.1,71.0,30.00,East,79,2.0,10.0,67,0.00,,,0.00,weatherlink.com 1.10,2013-06-09 00:31:00,
2013-06-08 14:49:00,81.7,71.0,29.99,ENE,63,2.0,9.0,70,0.00,,,0.00,weatherlink.com 1.10,2013-06-09 00:49:00,
2013-06-08 15:07:00,82.0,70.0,29.99,NNE,12,3.0,9.0,68,0.00,,,0.00,weatherlink.com 1.10,2013-06-09 01:07:00,
2013-06-08 15:25:00,81.8,71.0,29.99,North,9,5.0,12.0,70,0.00,,,0.00,weatherlink.com 1.10,2013-06-09 01:25:00,
2013-06-08 15:43:00,82.0,71.0,29.99,NE,51,0.0,7.0,69,0.00,,,0.00,weatherlink.com 1.10,2013-06-09 01:43:00,
2013-06-08 16:01:00,81.2,70.0,29.99,East,98,5.0,12.0,70,0.00,,,0.00,weatherlink.com 1.10,2013-06-09 02:01:00,
2013-06-08 16:19:00,80.3,70.0,29.98,NE,50,0.0,8.0,71,0.00,,,0.00,weatherlink.com 1.10,2013-06-09 02:19:00,
2013-06-08 16:37:00,79.8,70.0,29.98,NNE,32,2.0,7.0,73,0.00,,,0.00,weatherlink.com 1.10,2013-06-09 02:37:00,
2013-06-08 16:55:00,79.1,69.0,29.99,ESE,111,2.0,10.0,71,0.00,,,0.00,weatherlink.com 1.10,2013-06-09 02:55:00,
2013-06-08 17:13:00,79.6,70.0,29.99,East,82,0.0,8.0,73,0.00,,,0.00,weatherlink.com 1.10,2013-06-09 03:13:00,
2013-06-08 17:31:00,78.7,70.0,29.99,North,9,1.0,5.0,74,0.00,,,0.00,weatherlink.com 1.10,2013-06-09 03:31:00,
2013-06-08 17:49:00,78.2,70.0,30.00,SSE,162,5.0,9.0,75,0.00,,,0.00,weatherlink.com 1.10,2013-06-09 03:49:00,
2013-06-08 18:08:00,77.6,70.0,30.00,ESE,117,3.0,7.0,77,0.00,,,0.00,weatherlink.com 1.10,2013-06-09 04:08:00,
2013-06-08 18:26:00,77.1,69.0,30.01,East,100,3.0,5.0,77,0.00,,,0.00,weatherlink.com 1.10,2013-06-09 04:26:00,
2013-06-08 18:44:00,77.0,69.0,30.01,ESE,105,0.0,5.0,76,0.00,,,0.00,weatherlink.com 1.10,2013-06-09 04:44:00,
2013-06-08 19:03:00,76.7,68.0,30.02,East,99,0.0,9.0,74,0.00,,,0.00,weatherlink.com 1.10,2013-06-09 05:03:00,
2013-06-08 19:22:00,76.7,69.0,30.02,East,80,3.0,8.0,77,0.00,,,0.00,weatherlink.com 1.10,2013-06-09 05:22:00,
2013-06-08 19:40:00,76.7,69.0,30.03,ENE,68,0.0,6.0,78,0.00,,,0.00,weatherlink.com 1.10,2013-06-09 05:40:00,
2013-06-08 19:58:00,76.5,69.0,30.03,NE,54,2.0,11.0,77,0.00,,,0.00,weatherlink.com 1.10,2013-06-09 05:58:00,
2013-06-08 20:17:00,76.2,69.0,30.04,NE,38,0.0,5.0,78,0.00,,,0.00,weatherlink.com 1.10,2013-06-09 06:17:00,
2013-06-08 20:35:00,76.0,69.0,30.04,ENE,67,0.0,5.0,78,0.00,,,0.00,weatherlink.com 1.10,2013-06-09 06:35:00,
2013-06-08 20:53:00,76.1,68.0,30.05,ESE,109,0.0,7.0,77,0.00,,,0.00,weatherlink.com 1.10,2013-06-09 06:53:00,
2013-06-08 21:12:00,76.2,69.0,30.05,ENE,59,2.0,5.0,79,0.00,,,0.00,weatherlink.com 1.10,2013-06-09 07:12:00,
2013-06-08 21:30:00,76.1,69.0,30.05,NE,38,1.0,6.0,78,0.00,,,0.00,weatherlink.com 1.10,2013-06-09 07:30:00,
2013-06-08 21:48:00,76.0,69.0,30.05,ESE,106,7.0,8.0,78,0.00,,,0.00,weatherlink.com 1.10,2013-06-09 07:48:00,
2013-06-08 22:07:00,76.0,69.0,30.06,NNE,15,3.0,4.0,79,0.00,,,0.00,weatherlink.com 1.10,2013-06-09 08:07:00,
2013-06-08 22:25:00,76.0,69.0,30.06,NNE,30,0.0,6.0,80,0.00,,,0.00,weatherlink.com 1.10,2013-06-09 08:25:00,
2013-06-08 22:43:00,75.9,69.0,30.06,ENE,71,2.0,5.0,79,0.00,,,0.00,weatherlink.com 1.10,2013-06-09 08:43:00,
2013-06-08 23:02:00,76.0,69.0,30.06,ENE,70,0.0,8.0,79,0.00,,,0.00,weatherlink.com 1.10,2013-06-09 09:02:00,
2013-06-08 23:20:00,75.8,68.0,30.06,ESE,116,2.0,7.0,78,0.00,,,0.00,weatherlink.com 1.10,2013-06-09 09:20:00,
2013-06-08 23:38:00,76.0,69.0,30.06,NE,55,0.0,7.0,79,0.00,,,0.00,weatherlink.com 1.10,2013-06-09 09:38:00,
2013-06-08 23:59:00,76.0,69.0,30.05,ENE,69,1.0,7.0,79,0.00,,,0.00,weatherlink.com 1.10,2013-06-09 09:59:00,